Flight Track Log - Related Links

Times and Time Zones

All times are in EDT time to prevent confusion due to time zone crossing. See the AAY812 flight status page for this flight to view local times or setup timezone preferences in your user account.

Time Position Orientation Groundspeed Altitude Reporting Facility
EDT Latitude Longitude Course Direction KTS MPH feet Rate Location/Type
Sun 03:05:50 PM 27.9333 -82.7000 19° North 141 162 800  Level Tampa TRACON
Sun 03:07:20 PM 28.0167 -82.6667 19° North 245 282 3,300 2,217 Climbing Tampa TRACON
Sun 03:09:13 PM 28.1436 -82.6489 North 273 314 8,300 2,489 Climbing Miami Center
Sun 03:10:16 PM 28.2214 -82.6336 10° North 277 319 10,600 1,776 Climbing Miami Center
Sun 03:11:18 PM 28.3100 -82.6169 North 317 365 12,000 1,887 Climbing Miami Center
Sun 03:12:20 PM 28.4300 -82.5911 11° North 358 412 14,500 2,226 Climbing Miami Center
Sun 03:13:22 PM 28.5367 -82.5683 11° North 379 436 16,600 1,920 Climbing Miami Center
Sun 03:14:25 PM 28.6508 -82.5719 358° North 405 466 18,500 1,619 Climbing Miami Center
Sun 03:15:28 PM 28.7611 -82.5967 349° North 394 453 20,000 738 Climbing Jacksonville Center
Sun 03:16:27 PM 28.8739 -82.6200 350° North 404 465 20,000 -50 Level Jacksonville Center
Sun 03:17:27 PM 28.9886 -82.6433 350° North 409 471 19,900  Descending Jacksonville Center
Sun 03:18:28 PM 29.1036 -82.6669 350° North 409 471 20,000 744 Climbing Jacksonville Center
Sun 03:19:28 PM 29.2183 -82.6928 349° North 409 471 21,400 1,008 Climbing Jacksonville Center
Sun 03:20:27 PM 29.3353 -82.7211 348° North 414 476 22,000 700 Climbing Jacksonville Center
Sun 03:21:28 PM 29.4542 -82.7472 349° North 419 482 22,800 942 Climbing Jacksonville Center
Sun 03:22:28 PM 29.5900 -82.7850 346° North 446 513 23,900 1,236 Climbing Jacksonville Center
Sun 03:24:47 PM 29.8700 -82.7589 23° Northeast 458 527 26,900 1,307 Climbing Miami Center
Sun 03:25:27 PM 29.9636 -82.7367 12° North 451 519 27,800 1,080 Climbing Jacksonville Center
Sun 03:26:27 PM 30.0764 -82.7175 North 451 519 28,700 1,041 Climbing Jacksonville Center
Sun 03:27:28 PM 30.2036 -82.6978 North 451 519 29,900 1,388 Climbing Jacksonville Center
Sun 03:28:28 PM 30.3436 -82.6783 North 456 525 31,500 1,210 Climbing Jacksonville Center
Sun 03:29:27 PM 30.4708 -82.6589 North 456 525 32,300 750 Climbing Jacksonville Center
Sun 03:30:28 PM 30.5919 -82.6464 North 450 518 33,000 298 Climbing Jacksonville Center
Sun 03:31:28 PM 30.7194 -82.6267 North 445 512 32,900 -50 Descending Jacksonville Center
Sun 03:32:28 PM 30.8444 -82.6069 North 445 512 32,900  Level Jacksonville Center
Sun 03:33:28 PM 30.9678 -82.5897 North 445 512 32,900 50 Level Jacksonville Center
Sun 03:34:28 PM 31.0908 -82.5700 North 445 512 33,000  Climbing Jacksonville Center
Sun 03:35:28 PM 31.2161 -82.5525 North 445 512 32,900 -50 Descending Jacksonville Center
Sun 03:36:28 PM 31.3392 -82.5350 North 445 512 32,900 50 Level Jacksonville Center
Sun 03:37:28 PM 31.4561 -82.5103 10° North 445 512 33,000 50 Climbing Jacksonville Center
Sun 03:38:28 PM 31.5792 -82.4925 North 445 512 33,000  Level Jacksonville Center
Sun 03:39:28 PM 31.7064 -82.4725 North 445 512 33,000  Level Jacksonville Center
Sun 03:40:47 PM 31.8825 -82.4492 North 461 531 33,000  Level Atlanta Center
Sun 03:41:47 PM 32.0094 -82.4272 North 461 531 33,000  Level Atlanta Center
Sun 03:42:47 PM 32.1344 -82.4078 North 456 525 33,000  Level Atlanta Center
Sun 03:43:47 PM 32.2553 -82.3908 North 451 519 33,000  Level Atlanta Center
Sun 03:44:47 PM 32.3781 -82.3567 13° North 446 513 33,000  Level Atlanta Center
Sun 03:45:47 PM 32.5028 -82.3172 15° North 451 519 33,000  Level Atlanta Center
Sun 03:46:47 PM 32.6278 -82.3025 North 451 519 33,000  Level Atlanta Center
Sun 03:47:47 PM 32.7528 -82.2878 North 445 512 33,000  Level Atlanta Center
Sun 03:48:47 PM 32.8797 -82.2728 North 445 512 33,000  Level Atlanta Center
Sun 03:49:47 PM 33.0047 -82.2553 North 445 512 33,000  Level Atlanta Center
Sun 03:50:47 PM 33.1319 -82.2356 North 445 512 33,000  Level Atlanta Center
Sun 03:51:47 PM 33.2439 -82.1983 16° North 452 520 33,000  Level Atlanta Center
Sun 03:52:47 PM 33.3644 -82.1511 18° North 452 520 33,000  Level Atlanta Center
Sun 03:53:47 PM 33.4828 -82.1061 18° North 452 520 33,000  Level Atlanta Center
Sun 03:54:47 PM 33.6031 -82.0608 17° North 452 520 33,000  Level Atlanta Center
Sun 03:55:47 PM 33.7256 -82.0181 16° North 452 520 33,000  Level Atlanta Center
Sun 03:56:47 PM 33.8478 -81.9728 17° North 452 520 33,000 -650 Level Atlanta Center
Sun 03:57:47 PM 33.9661 -81.9272 18° North 452 520 31,700 -1,100 Descending Atlanta Center
Sun 03:58:47 PM 34.0822 -81.8844 17° North 447 514 30,800 -1,350 Descending Atlanta Center
Sun 03:59:47 PM 34.2086 -81.8408 16° North 431 496 29,000 -900 Descending Atlanta Center
Sun 04:00:47 PM 34.3247 -81.7978 17° North 431 496 29,000  Level Atlanta Center
Sun 04:01:47 PM 34.4408 -81.7517 18° North 436 502 29,000 -850 Level Atlanta Center
Sun 04:02:47 PM 34.5547 -81.7083 17° North 436 502 27,300 -1,000 Descending Atlanta Center
Sun 04:03:47 PM 34.6606 -81.6700 17° North 436 502 27,000 -150 Descending Atlanta Center
Sun 04:04:47 PM 34.7786 -81.6261 17° North 436 502 27,000  Level Atlanta Center
Sun 04:05:47 PM 34.8925 -81.5800 18° North 436 502 27,000  Level Atlanta Center
Sun 04:06:47 PM 35.0083 -81.5383 16° North 436 502 27,000  Level Atlanta Center
Sun 04:07:47 PM 35.1222 -81.4919 18° North 436 502 27,000  Level Atlanta Center
Sun 04:08:47 PM 35.2383 -81.4500 16° North 436 502 27,000  Level Atlanta Center
Sun 04:09:47 PM 35.3539 -81.4006 19° North 436 502 27,000  Level Atlanta Center
Sun 04:10:47 PM 35.4678 -81.3586 17° North 436 502 27,000  Level Atlanta Center
Sun 04:11:47 PM 35.5961 -81.3061 18° North 436 502 27,000  Level Atlanta Center
Sun 04:12:47 PM 35.7203 -81.2608 16° North 449 517 27,000  Level Atlanta Center
Sun 04:13:47 PM 35.8358 -81.2133 18° North 449 517 27,000  Level Atlanta Center
Sun 04:14:47 PM 35.9536 -81.1658 18° North 442 509 27,000 -450 Level Atlanta Center
Sun 04:15:47 PM 36.0675 -81.1206 18° North 436 502 26,100 -1,500 Descending Atlanta Center
Sun 04:16:47 PM 36.1872 -81.0750 17° North 436 502 24,000 -1,450 Descending Atlanta Center
Sun 04:17:47 PM 36.3028 -81.0269 19° North 441 507 23,200 -1,000 Descending Atlanta Center
Sun 04:18:47 PM 36.4164 -80.9814 18° North 434 499 22,000 -1,100 Descending Atlanta Center
Sun 04:19:47 PM 36.5217 -80.9386 18° North 417 480 21,000 -1,350 Descending Atlanta Center
Sun 04:20:47 PM 36.6189 -80.9014 17° North 384 442 19,300 -1,850 Descending Atlanta Center
Sun 04:21:47 PM 36.7158 -80.8614 18° North 365 420 17,300 -1,950 Descending Atlanta Center
Sun 04:22:47 PM 36.8086 -80.8239 18° North 352 405 15,400 -1,150 Descending Atlanta Center
Sun 04:23:47 PM 36.8994 -80.7864 18° North 352 405 15,000 -1,117 Descending Atlanta Center
Sun 04:28:20 PM 37.1689 -80.4686 67° East 311 358 9,200 -1,051 Descending Washington Center
Sun 04:32:21 PM 37.2461 -80.0925 75° East 254 292 6,000 -845 Descending Washington Center
Sun 04:33:00 PM 37.3167 -79.9667 67° East  Level FlightAware Approximate
Sun 04:36:23 PM 37.3597 -79.8981 54° Northeast 163 188 2,400  Level Washington Center

Login

Don't have an account? Register now (free) for customized features, flight alerts, and more!